createdAt,value
2022-12-04T00:00:45.051Z,20.10
2022-12-04T00:03:12.352Z,20.10
2022-12-04T00:05:39.738Z,20.10
2022-12-04T00:08:06.789Z,20.00
2022-12-04T00:10:33.754Z,20.00
2022-12-04T00:13:00.534Z,19.90
2022-12-04T00:15:27.432Z,19.90
2022-12-04T00:17:54.480Z,19.90
2022-12-04T00:20:22.960Z,19.90
2022-12-04T00:22:49.830Z,19.90
2022-12-04T00:25:16.976Z,19.90
2022-12-04T00:27:44.225Z,19.90
2022-12-04T00:30:11.554Z,19.90
2022-12-04T00:32:38.266Z,19.80
2022-12-04T00:35:05.527Z,19.90
2022-12-04T00:37:33.363Z,19.90
2022-12-04T00:40:00.142Z,19.80
2022-12-04T00:42:26.959Z,19.90
2022-12-04T00:44:53.827Z,19.80
2022-12-04T00:47:20.824Z,19.90
2022-12-04T00:49:47.615Z,19.90
2022-12-04T00:52:14.394Z,19.90
2022-12-04T00:54:41.166Z,19.90
2022-12-04T00:57:07.929Z,19.90
2022-12-04T00:59:34.795Z,19.90
2022-12-04T01:02:01.503Z,19.90
2022-12-04T01:04:28.376Z,19.90
2022-12-04T01:06:58.009Z,19.90
2022-12-04T01:09:27.129Z,19.90
2022-12-04T01:11:53.859Z,19.90
2022-12-04T01:14:20.583Z,19.90
2022-12-04T01:16:47.473Z,19.90
2022-12-04T01:19:14.289Z,19.90
2022-12-04T01:21:41.079Z,20.00
2022-12-04T01:24:08.822Z,19.90
2022-12-04T01:26:35.989Z,19.90
2022-12-04T01:29:03.493Z,19.90
2022-12-04T01:31:30.600Z,19.90
2022-12-04T01:33:57.489Z,19.90
2022-12-04T01:36:28.154Z,19.90
2022-12-04T01:38:56.189Z,19.80
2022-12-04T01:41:29.290Z,19.90
2022-12-04T01:44:08.319Z,19.90
2022-12-04T01:46:35.228Z,19.90
2022-12-04T01:49:03.637Z,19.90
2022-12-04T01:51:35.465Z,19.90
2022-12-04T01:54:08.846Z,19.90
2022-12-04T01:56:50.587Z,19.80
2022-12-04T01:59:21.755Z,19.80
2022-12-04T02:02:14.397Z,19.90
2022-12-04T02:04:42.639Z,19.80
2022-12-04T02:07:09.564Z,19.90
2022-12-04T02:09:39.323Z,19.80
2022-12-04T02:12:18.818Z,19.80
2022-12-04T02:15:02.625Z,19.80
2022-12-04T02:17:52.796Z,19.90
2022-12-04T02:20:40.975Z,19.80
2022-12-04T02:23:31.986Z,19.80
2022-12-04T02:26:29.851Z,19.80
2022-12-04T02:29:09.381Z,19.80
2022-12-04T02:32:13.176Z,19.80
2022-12-04T02:34:50.902Z,19.80
2022-12-04T02:37:24.157Z,19.80
2022-12-04T02:39:58.905Z,19.80
2022-12-04T02:42:58.171Z,19.70
2022-12-04T02:45:30.110Z,19.70
2022-12-04T02:47:59.808Z,19.70
2022-12-04T02:50:27.840Z,19.70
2022-12-04T02:53:00.526Z,19.70
2022-12-04T02:55:33.484Z,19.70
2022-12-04T02:58:06.745Z,19.70
2022-12-04T03:00:36.897Z,19.70
2022-12-04T03:03:13.099Z,19.70
2022-12-04T03:05:53.776Z,19.70
2022-12-04T03:08:26.205Z,19.70
2022-12-04T03:10:56.766Z,19.70
2022-12-04T03:13:41.246Z,19.70
2022-12-04T03:16:16.281Z,19.70
2022-12-04T03:18:46.533Z,19.70
2022-12-04T03:21:25.176Z,19.70
2022-12-04T03:23:58.831Z,19.70
2022-12-04T03:26:39.982Z,19.70
2022-12-04T03:29:31.112Z,19.70
2022-12-04T03:32:06.274Z,19.70
2022-12-04T03:34:48.903Z,19.70
2022-12-04T03:37:19.831Z,19.70
2022-12-04T03:39:52.209Z,19.70
2022-12-04T03:42:26.821Z,19.70
2022-12-04T03:44:53.510Z,19.70
2022-12-04T03:47:39.124Z,19.70
2022-12-04T03:50:31.270Z,19.70
2022-12-04T03:53:20.499Z,19.70
2022-12-04T03:56:03.725Z,19.70
2022-12-04T03:58:32.803Z,19.70
2022-12-04T04:01:01.683Z,19.70
2022-12-04T04:03:34.020Z,19.70
2022-12-04T04:06:06.016Z,19.70
2022-12-04T04:08:38.924Z,19.60
2022-12-04T04:11:15.573Z,19.60
2022-12-04T04:14:12.238Z,19.60
2022-12-04T04:17:01.737Z,19.60
2022-12-04T04:19:51.078Z,19.60
2022-12-04T04:22:38.549Z,19.60
2022-12-04T04:25:12.165Z,19.70
2022-12-04T04:27:39.436Z,19.70
2022-12-04T04:30:07.895Z,19.70
2022-12-04T04:33:06.087Z,19.80
2022-12-04T04:35:46.590Z,19.90
2022-12-04T04:38:18.714Z,19.90
2022-12-04T04:40:59.071Z,20.00
2022-12-04T04:43:35.452Z,20.10
2022-12-04T04:46:07.743Z,20.10
2022-12-04T04:48:41.483Z,20.20
2022-12-04T04:51:09.572Z,20.20
2022-12-04T04:53:46.801Z,20.20
2022-12-04T04:56:14.306Z,20.20
2022-12-04T04:58:42.435Z,20.20
2022-12-04T05:01:22.632Z,20.20
2022-12-04T05:03:49.497Z,20.20
2022-12-04T05:06:16.249Z,20.20
2022-12-04T05:08:44.165Z,20.20
2022-12-04T05:11:13.379Z,20.20
2022-12-04T05:13:40.986Z,20.20
2022-12-04T05:16:11.520Z,20.20
2022-12-04T05:18:38.472Z,20.30
2022-12-04T05:21:15.863Z,20.30
2022-12-04T05:23:43.339Z,20.30
2022-12-04T05:26:10.213Z,20.40
2022-12-04T05:28:37.179Z,20.30
2022-12-04T05:31:04.339Z,20.30
2022-12-04T05:33:31.326Z,20.30
2022-12-04T05:35:59.854Z,20.30
2022-12-04T05:38:27.036Z,20.30
2022-12-04T05:40:53.867Z,20.30
2022-12-04T05:43:20.637Z,20.30
2022-12-04T05:45:47.390Z,20.30
2022-12-04T05:48:14.146Z,20.30
2022-12-04T05:50:40.981Z,20.30
2022-12-04T05:53:08.071Z,20.40
2022-12-04T05:55:34.828Z,20.40
2022-12-04T05:58:02.459Z,20.40
2022-12-04T06:00:29.721Z,20.50
2022-12-04T06:02:56.610Z,20.50
2022-12-04T06:05:23.445Z,20.50
2022-12-04T06:07:50.273Z,20.50
2022-12-04T06:10:17.202Z,20.50
2022-12-04T06:12:44.006Z,20.40
2022-12-04T06:15:11.201Z,20.40
2022-12-04T06:17:37.976Z,20.40
2022-12-04T06:20:11.280Z,20.40
2022-12-04T06:22:38.682Z,20.40
2022-12-04T06:25:05.808Z,20.40
2022-12-04T06:27:32.608Z,20.40
2022-12-04T06:29:59.717Z,20.40
2022-12-04T06:32:26.615Z,20.40
2022-12-04T06:34:54.602Z,20.40
2022-12-04T06:37:23.011Z,20.40
2022-12-04T06:39:50.117Z,20.30
2022-12-04T06:42:17.330Z,20.30
2022-12-04T06:44:44.091Z,20.30
2022-12-04T06:47:10.903Z,20.30
2022-12-04T06:49:37.713Z,20.20
2022-12-04T06:52:04.481Z,20.20
2022-12-04T06:54:31.280Z,20.20
2022-12-04T06:56:58.052Z,20.10
2022-12-04T06:59:25.268Z,20.10
2022-12-04T07:01:52.018Z,20.20
2022-12-04T07:04:19.268Z,20.20
2022-12-04T07:06:46.090Z,20.20
2022-12-04T07:09:17.668Z,20.20
2022-12-04T07:11:45.570Z,20.20
2022-12-04T07:14:13.363Z,20.30
2022-12-04T07:16:41.943Z,20.30
2022-12-04T07:19:13.807Z,20.30
2022-12-04T07:21:41.442Z,20.30
2022-12-04T07:24:08.666Z,20.20
2022-12-04T07:26:35.470Z,20.10
2022-12-04T07:29:02.210Z,20.10
2022-12-04T07:31:30.256Z,20.00
2022-12-04T07:33:58.115Z,20.00
2022-12-04T07:36:26.184Z,20.00
2022-12-04T07:38:54.391Z,20.00
2022-12-04T07:41:21.211Z,20.00
2022-12-04T07:43:48.030Z,20.00
2022-12-04T07:46:20.973Z,20.10
2022-12-04T07:48:47.855Z,20.10
2022-12-04T07:51:23.347Z,20.20
2022-12-04T07:53:53.031Z,20.20
2022-12-04T07:56:21.077Z,20.20
2022-12-04T07:58:48.306Z,20.30
2022-12-04T08:01:21.430Z,20.30
2022-12-04T08:03:50.622Z,20.40
2022-12-04T08:06:19.563Z,20.40
2022-12-04T08:08:47.307Z,20.50
2022-12-04T08:11:16.738Z,20.50
2022-12-04T08:13:44.152Z,20.50
2022-12-04T08:16:12.558Z,20.50
2022-12-04T08:18:40.291Z,20.50
2022-12-04T08:21:12.087Z,20.50
2022-12-04T08:23:40.804Z,20.40
2022-12-04T08:26:07.899Z,20.40
2022-12-04T08:28:35.608Z,20.40
2022-12-04T08:31:07.373Z,20.40
2022-12-04T08:33:35.177Z,20.40
2022-12-04T08:36:05.284Z,20.30
2022-12-04T08:38:32.013Z,20.40
2022-12-04T08:41:06.453Z,20.40
2022-12-04T08:43:33.521Z,20.40
2022-12-04T08:46:06.232Z,20.40
2022-12-04T08:48:33.957Z,20.40
2022-12-04T08:51:01.803Z,20.50
2022-12-04T08:53:29.120Z,20.40
2022-12-04T08:55:56.146Z,20.50
2022-12-04T08:58:23.513Z,20.50
2022-12-04T09:00:50.440Z,20.40
2022-12-04T09:03:19.677Z,20.40
2022-12-04T09:05:46.557Z,20.40
2022-12-04T09:08:15.418Z,20.30
2022-12-04T09:10:43.436Z,20.30
2022-12-04T09:13:10.651Z,20.30
2022-12-04T09:15:41.016Z,20.30
2022-12-04T09:18:09.155Z,20.30
2022-12-04T09:20:36.525Z,20.40
2022-12-04T09:23:05.471Z,20.40
2022-12-04T09:25:36.629Z,20.40
2022-12-04T09:28:04.921Z,20.50
2022-12-04T09:30:32.001Z,20.50
2022-12-04T09:32:59.089Z,20.50
2022-12-04T09:35:25.958Z,20.50
2022-12-04T09:37:52.874Z,20.40
2022-12-04T09:40:38.132Z,20.50
2022-12-04T09:43:11.004Z,20.40
2022-12-04T09:45:51.335Z,20.40
2022-12-04T09:48:22.195Z,20.40
2022-12-04T09:50:50.266Z,20.40
2022-12-04T09:53:26.749Z,20.40
2022-12-04T09:56:05.616Z,20.50
2022-12-04T09:58:49.106Z,20.50
2022-12-04T10:01:29.985Z,20.50
2022-12-04T10:04:02.673Z,20.60
2022-12-04T10:06:47.445Z,20.60
2022-12-04T10:09:25.232Z,20.60
2022-12-04T10:12:07.489Z,20.60
2022-12-04T10:14:49.531Z,20.70
2022-12-04T10:17:43.674Z,20.70
2022-12-04T10:20:27.585Z,20.80
2022-12-04T10:23:14.137Z,20.80
2022-12-04T10:25:42.277Z,20.80
2022-12-04T10:28:56.729Z,20.80
2022-12-04T10:31:27.952Z,20.80
2022-12-04T10:34:12.115Z,20.90
2022-12-04T10:36:41.360Z,20.90
2022-12-04T10:39:33.250Z,20.90
2022-12-04T10:42:22.158Z,20.90
2022-12-04T10:44:49.013Z,20.90
2022-12-04T10:47:15.957Z,21.00
2022-12-04T10:49:44.285Z,21.00
2022-12-04T10:52:13.686Z,21.00
2022-12-04T10:54:50.694Z,21.00
2022-12-04T10:57:18.190Z,21.00
2022-12-04T10:59:54.855Z,21.10
2022-12-04T11:02:25.749Z,21.10
2022-12-04T11:05:28.014Z,21.10
2022-12-04T11:07:55.965Z,21.10
2022-12-04T11:10:23.022Z,21.10
2022-12-04T11:13:02.550Z,21.20
2022-12-04T11:15:30.340Z,21.20
2022-12-04T11:18:08.652Z,21.20
2022-12-04T11:20:35.869Z,21.30
2022-12-04T11:23:03.248Z,21.30
2022-12-04T11:25:44.717Z,21.30
2022-12-04T11:28:40.724Z,21.40
2022-12-04T11:31:10.566Z,21.30
2022-12-04T11:33:55.775Z,21.30
2022-12-04T11:36:30.233Z,21.30
2022-12-04T11:39:12.537Z,21.20
2022-12-04T11:41:39.913Z,21.20
2022-12-04T11:44:20.197Z,21.20
2022-12-04T11:46:53.634Z,21.30
2022-12-04T11:49:23.043Z,21.30
2022-12-04T11:52:16.933Z,21.30
2022-12-04T11:55:03.393Z,21.30
2022-12-04T11:57:44.047Z,21.40
2022-12-04T12:00:22.823Z,21.40
2022-12-04T12:03:05.049Z,21.40
2022-12-04T12:06:12.406Z,21.40
2022-12-04T12:08:58.878Z,21.40
2022-12-04T12:11:58.742Z,21.40
2022-12-04T12:14:49.732Z,21.40
2022-12-04T12:17:46.835Z,21.40
2022-12-04T12:20:24.558Z,21.40
2022-12-04T12:23:08.052Z,21.40
2022-12-04T12:26:00.232Z,21.30
2022-12-04T12:28:48.295Z,21.30
2022-12-04T12:31:24.144Z,21.20
2022-12-04T12:34:03.401Z,21.20
2022-12-04T12:36:43.576Z,21.20
2022-12-04T12:39:19.035Z,21.10
2022-12-04T12:41:53.324Z,21.10
2022-12-04T12:44:24.015Z,21.20
2022-12-04T12:47:00.412Z,21.20
2022-12-04T12:49:36.290Z,21.20
2022-12-04T12:52:16.235Z,21.20
2022-12-04T12:54:51.948Z,21.20
2022-12-04T12:57:30.968Z,21.30
2022-12-04T13:00:03.866Z,21.30
2022-12-04T13:03:02.128Z,21.30
2022-12-04T13:05:46.646Z,21.30
2022-12-04T13:08:25.158Z,21.30
2022-12-04T13:11:05.701Z,21.30
2022-12-04T13:13:35.996Z,21.30
2022-12-04T13:16:10.596Z,21.30
2022-12-04T13:18:54.863Z,21.30
2022-12-04T13:21:32.658Z,21.20
2022-12-04T13:24:25.814Z,21.20
2022-12-04T13:27:03.446Z,21.10
2022-12-04T13:30:14.317Z,21.10
2022-12-04T13:33:09.234Z,21.10
2022-12-04T13:35:42.124Z,21.10
2022-12-04T13:38:31.136Z,21.10
2022-12-04T13:41:02.520Z,21.10
2022-12-04T13:43:41.677Z,21.10
2022-12-04T13:46:36.141Z,21.10
2022-12-04T13:49:22.399Z,21.10
2022-12-04T13:51:49.600Z,21.10
2022-12-04T13:54:21.843Z,21.00
2022-12-04T13:56:51.982Z,20.90
2022-12-04T13:59:23.497Z,20.90
2022-12-04T14:01:53.815Z,20.80
2022-12-04T14:04:23.637Z,20.70
2022-12-04T14:06:51.886Z,20.70
2022-12-04T14:09:27.341Z,20.60
2022-12-04T14:12:03.891Z,20.60
2022-12-04T14:14:55.734Z,20.60
2022-12-04T14:17:30.273Z,20.60
2022-12-04T14:20:07.323Z,20.50
2022-12-04T14:22:37.546Z,20.50
2022-12-04T14:25:34.395Z,20.50
2022-12-04T14:28:26.344Z,20.50
2022-12-04T14:31:18.107Z,20.50
2022-12-04T14:33:53.002Z,20.40
2022-12-04T14:36:31.753Z,20.40
2022-12-04T14:39:33.030Z,20.30
2022-12-04T14:42:23.528Z,20.40
2022-12-04T14:44:57.130Z,20.30
2022-12-04T14:47:48.573Z,20.30
2022-12-04T14:50:28.042Z,20.30
2022-12-04T14:53:12.591Z,20.30
2022-12-04T14:56:07.421Z,20.30
2022-12-04T14:58:38.443Z,20.30
2022-12-04T15:01:22.703Z,20.20
2022-12-04T15:03:56.020Z,20.20
2022-12-04T15:06:27.248Z,20.20
2022-12-04T15:09:19.000Z,20.20
2022-12-04T15:12:12.585Z,20.20
2022-12-04T15:14:44.066Z,20.20
2022-12-04T15:17:12.378Z,20.20
2022-12-04T15:19:39.825Z,20.20
2022-12-04T15:22:33.095Z,20.10
2022-12-04T15:25:00.300Z,20.10
2022-12-04T15:27:32.320Z,20.10
2022-12-04T15:30:01.574Z,20.10
2022-12-04T15:32:30.971Z,20.10
2022-12-04T15:35:12.798Z,20.10
2022-12-04T15:37:40.917Z,20.10
2022-12-04T15:40:11.797Z,20.10
2022-12-04T15:42:38.796Z,20.20
2022-12-04T15:45:08.463Z,20.20
2022-12-04T15:47:53.465Z,20.20
2022-12-04T15:50:23.841Z,20.20
2022-12-04T15:53:05.486Z,20.20
2022-12-04T15:55:52.653Z,20.20
2022-12-04T15:58:19.350Z,20.20
2022-12-04T16:00:46.691Z,20.20
2022-12-04T16:03:32.911Z,20.30
2022-12-04T16:06:17.445Z,20.30
2022-12-04T16:08:46.844Z,20.40
2022-12-04T16:11:22.717Z,20.40
2022-12-04T16:14:11.034Z,20.50
2022-12-04T16:16:43.683Z,20.50
2022-12-04T16:19:36.744Z,20.60
2022-12-04T16:22:12.850Z,20.70
2022-12-04T16:24:40.031Z,20.70
2022-12-04T16:27:20.008Z,20.80
2022-12-04T16:29:50.678Z,20.90
2022-12-04T16:32:20.060Z,20.90
2022-12-04T16:34:50.056Z,21.00
2022-12-04T16:37:21.905Z,21.00
2022-12-04T16:39:48.942Z,21.10
2022-12-04T16:42:22.196Z,21.10
2022-12-04T16:44:49.194Z,21.10
2022-12-04T16:47:16.649Z,21.10
2022-12-04T16:49:44.778Z,21.10
2022-12-04T16:52:12.594Z,21.10
2022-12-04T16:54:39.996Z,21.20
2022-12-04T16:57:10.002Z,21.20
2022-12-04T16:59:37.274Z,21.20
2022-12-04T17:02:14.932Z,21.20
2022-12-04T17:04:41.772Z,21.30
2022-12-04T17:07:08.672Z,21.30
2022-12-04T17:09:35.440Z,21.30
2022-12-04T17:12:02.297Z,21.40
2022-12-04T17:14:29.268Z,21.40
2022-12-04T17:16:58.631Z,21.40
2022-12-04T17:19:25.418Z,21.30
2022-12-04T17:21:52.313Z,21.30
2022-12-04T17:24:19.053Z,21.20
2022-12-04T17:26:46.826Z,21.20
2022-12-04T17:29:13.609Z,21.10
2022-12-04T17:31:40.390Z,21.10
2022-12-04T17:34:07.168Z,21.00
2022-12-04T17:36:34.770Z,21.00
2022-12-04T17:39:02.315Z,21.00
2022-12-04T17:41:29.800Z,21.00
2022-12-04T17:43:59.579Z,21.00
2022-12-04T17:46:26.418Z,21.10
2022-12-04T17:49:03.874Z,21.10
2022-12-04T17:51:35.695Z,21.10
2022-12-04T17:54:02.921Z,21.10
2022-12-04T17:56:30.337Z,21.20
2022-12-04T17:58:57.756Z,21.20
2022-12-04T18:01:27.313Z,21.30
2022-12-04T18:03:59.202Z,21.30
2022-12-04T18:06:32.627Z,21.30
2022-12-04T18:09:00.143Z,21.40
2022-12-04T18:11:29.443Z,21.40
2022-12-04T18:14:00.658Z,21.40
2022-12-04T18:16:29.671Z,21.40
2022-12-04T18:18:58.136Z,21.40
2022-12-04T18:21:25.463Z,21.40
2022-12-04T18:23:55.703Z,21.30
2022-12-04T18:26:26.876Z,21.30
2022-12-04T18:28:57.262Z,21.20
2022-12-04T18:31:24.316Z,21.20
2022-12-04T18:33:51.243Z,21.20
2022-12-04T18:36:29.564Z,21.20
2022-12-04T18:39:02.065Z,21.20
2022-12-04T18:41:30.196Z,21.20
2022-12-04T18:43:57.967Z,21.20
2022-12-04T18:46:25.632Z,21.20
2022-12-04T18:48:54.457Z,21.20
2022-12-04T18:51:28.685Z,21.20
2022-12-04T18:53:59.839Z,21.20
2022-12-04T18:56:27.976Z,21.20
2022-12-04T18:59:02.416Z,21.30
2022-12-04T19:01:31.516Z,21.30
2022-12-04T19:04:02.966Z,21.30
2022-12-04T19:06:33.106Z,21.40
2022-12-04T19:09:04.281Z,21.40
2022-12-04T19:11:31.894Z,21.50
2022-12-04T19:13:59.659Z,21.50
2022-12-04T19:16:26.941Z,21.50
2022-12-04T19:18:55.735Z,21.50
2022-12-04T19:21:23.418Z,21.50
2022-12-04T19:23:54.996Z,21.50
2022-12-04T19:26:22.168Z,21.50
2022-12-04T19:28:51.659Z,21.50
2022-12-04T19:31:20.569Z,21.40
2022-12-04T19:33:48.160Z,21.30
2022-12-04T19:36:17.885Z,21.30
2022-12-04T19:38:45.554Z,21.20
2022-12-04T19:41:21.556Z,21.20
2022-12-04T19:43:51.300Z,21.20
2022-12-04T19:46:22.885Z,21.10
2022-12-04T19:48:50.676Z,21.10
2022-12-04T19:51:21.142Z,21.10
2022-12-04T19:53:48.874Z,21.10
2022-12-04T19:56:21.330Z,21.10
2022-12-04T19:58:48.422Z,21.10
2022-12-04T20:01:17.740Z,21.10
2022-12-04T20:03:45.570Z,21.10
2022-12-04T20:06:15.604Z,21.10
2022-12-04T20:08:43.801Z,21.00
2022-12-04T20:11:13.408Z,21.00
2022-12-04T20:13:42.505Z,21.00
2022-12-04T20:16:12.378Z,21.00
2022-12-04T20:18:41.141Z,20.90
2022-12-04T20:21:13.074Z,20.90
2022-12-04T20:23:49.839Z,20.90
2022-12-04T20:26:22.476Z,20.90
2022-12-04T20:28:55.016Z,20.90
2022-12-04T20:31:25.596Z,20.80
2022-12-04T20:33:59.136Z,20.80
2022-12-04T20:36:30.917Z,20.80
2022-12-04T20:39:00.749Z,20.80
2022-12-04T20:41:30.835Z,20.70
2022-12-04T20:44:01.823Z,20.70
2022-12-04T20:46:34.737Z,20.70
2022-12-04T20:49:05.741Z,20.70
2022-12-04T20:51:39.634Z,20.70
2022-12-04T20:54:08.240Z,20.60
2022-12-04T20:56:37.795Z,20.60
2022-12-04T20:59:11.765Z,20.60
2022-12-04T21:01:39.453Z,20.60
2022-12-04T21:04:07.119Z,20.60
2022-12-04T21:06:38.012Z,20.60
2022-12-04T21:09:16.083Z,20.60
2022-12-04T21:11:54.966Z,20.60
2022-12-04T21:14:43.633Z,20.60
2022-12-04T21:17:16.579Z,20.50
2022-12-04T21:19:44.134Z,20.50
2022-12-04T21:22:10.979Z,20.50
2022-12-04T21:24:39.172Z,20.50
2022-12-04T21:27:07.839Z,20.50
2022-12-04T21:29:36.301Z,20.50
2022-12-04T21:32:03.975Z,20.50
2022-12-04T21:34:30.809Z,20.50
2022-12-04T21:36:57.969Z,20.50
2022-12-04T21:39:25.636Z,20.50
2022-12-04T21:42:11.419Z,20.50
2022-12-04T21:44:38.365Z,20.40
2022-12-04T21:47:06.174Z,20.40
2022-12-04T21:49:33.020Z,20.40
2022-12-04T21:52:01.020Z,20.30
2022-12-04T21:54:28.409Z,20.30
2022-12-04T21:56:56.568Z,20.20
2022-12-04T21:59:24.806Z,20.20
2022-12-04T22:01:52.464Z,20.20
2022-12-04T22:04:20.179Z,20.10
2022-12-04T22:06:47.368Z,20.10
2022-12-04T22:09:14.371Z,20.10
2022-12-04T22:11:43.029Z,20.10
2022-12-04T22:14:11.853Z,20.10
2022-12-04T22:16:42.621Z,20.10
2022-12-04T22:19:13.288Z,20.10
2022-12-04T22:21:41.666Z,20.10
2022-12-04T22:24:10.364Z,20.10
2022-12-04T22:26:37.641Z,20.10
2022-12-04T22:29:20.794Z,20.10
2022-12-04T22:31:52.087Z,20.10
2022-12-04T22:34:18.857Z,20.20
2022-12-04T22:36:45.639Z,20.20
2022-12-04T22:39:12.649Z,20.20
2022-12-04T22:41:39.571Z,20.20
2022-12-04T22:44:06.370Z,20.20
2022-12-04T22:46:33.663Z,20.20
2022-12-04T22:49:00.667Z,20.20
2022-12-04T22:51:28.213Z,20.20
2022-12-04T22:53:57.432Z,20.20
2022-12-04T22:56:27.114Z,20.20
2022-12-04T22:58:54.569Z,20.10
2022-12-04T23:01:28.535Z,20.10
2022-12-04T23:03:55.807Z,20.10
2022-12-04T23:06:24.357Z,20.10
2022-12-04T23:08:56.233Z,20.10
2022-12-04T23:11:25.370Z,20.10
2022-12-04T23:13:54.800Z,20.10
2022-12-04T23:16:24.099Z,20.10
2022-12-04T23:18:51.436Z,20.10
2022-12-04T23:21:20.856Z,20.10
2022-12-04T23:23:49.440Z,20.10
2022-12-04T23:26:20.187Z,20.10
2022-12-04T23:28:47.085Z,20.10
2022-12-04T23:31:14.125Z,20.10
2022-12-04T23:33:41.569Z,20.10
2022-12-04T23:36:10.588Z,20.10
2022-12-04T23:38:38.998Z,20.10
2022-12-04T23:41:07.556Z,20.10
2022-12-04T23:43:35.309Z,20.10
2022-12-04T23:46:08.931Z,20.10
2022-12-04T23:48:38.798Z,20.10
2022-12-04T23:51:05.926Z,20.10
2022-12-04T23:53:32.690Z,20.10
2022-12-04T23:56:06.454Z,20.20
2022-12-04T23:58:33.921Z,20.10
